Terminal Aerodrome Forecast
Issued by NWS Buffalo, NY

Home | Current Version | Previous Version | Text Only | Print | Product List | Glossary On
Versions: 1 2 3 4 5 6 7 8 9 10 11 12 13 14 15 16 17 18 19 20 21 22 23 24 25
000
FTUS41 KBUF 041724
TAFROC
TAF
KROC 041724Z 0418/0518 32005KT P6SM FEW025 BKN040
     FM042000 06005KT P6SM BKN070
     FM042300 10006KT P6SM BKN080
     FM050200 12009KT P6SM VCSH BKN050
     FM050400 12010G18KT 4SM -SHSN OVC035
     FM050800 13009KT 2SM -SHSN OVC015
     FM051000 15009KT 2SM -SHSNRA OVC012
     FM051300 22011G20KT P6SM OVC012
     FM051500 27016G28KT P6SM BKN012=

USA.gov is the U.S. government's official web portal to all federal, state and local government web resources and services.